createdAt,value
2019-04-21T00:02:37.707Z,12.50
2019-04-21T00:05:57.194Z,12.40
2019-04-21T00:09:09.348Z,12.40
2019-04-21T00:12:02.513Z,12.30
2019-04-21T00:14:55.644Z,12.40
2019-04-21T00:17:52.718Z,12.40
2019-04-21T00:20:56.252Z,12.40
2019-04-21T00:24:25.008Z,12.40
2019-04-21T00:27:32.413Z,12.50
2019-04-21T00:30:41.148Z,12.50
2019-04-21T00:33:27.890Z,12.50
2019-04-21T00:36:29.428Z,12.40
2019-04-21T00:39:55.777Z,12.30
2019-04-21T00:42:43.206Z,11.60
2019-04-21T00:45:42.235Z,11.40
2019-04-21T00:48:53.450Z,11.70
2019-04-21T00:58:26.816Z,11.60
2019-04-21T01:01:19.788Z,11.60
2019-04-21T01:04:23.504Z,11.50
2019-04-21T01:07:31.989Z,11.50
2019-04-21T01:10:33.221Z,11.30
2019-04-21T01:13:51.772Z,11.10
2019-04-21T01:17:03.843Z,10.90
2019-04-21T01:20:01.460Z,11.00
2019-04-21T01:22:58.278Z,11.00
2019-04-21T01:26:18.015Z,11.20
2019-04-21T01:29:44.124Z,11.10
2019-04-21T01:32:51.236Z,11.10
2019-04-21T01:35:54.890Z,11.00
2019-04-21T01:39:11.720Z,11.10
2019-04-21T01:42:18.830Z,11.00
2019-04-21T01:45:27.945Z,11.00
2019-04-21T01:48:33.314Z,11.00
2019-04-21T01:55:36.769Z,10.80
2019-04-21T02:05:06.516Z,10.60
2019-04-21T02:08:09.700Z,10.60
2019-04-21T02:11:17.552Z,10.40
2019-04-21T02:14:31.182Z,10.50
2019-04-21T02:17:34.244Z,10.50
2019-04-21T02:20:35.557Z,10.50
2019-04-21T02:23:52.951Z,10.40
2019-04-21T02:26:46.707Z,10.30
2019-04-21T02:29:48.664Z,10.30
2019-04-21T02:33:19.651Z,10.20
2019-04-21T02:36:20.675Z,10.10
2019-04-21T02:42:15.783Z,10.10
2019-04-21T02:45:12.859Z,10.00
2019-04-21T02:48:22.497Z,10.00
2019-04-21T02:51:19.611Z,9.90
2019-04-21T02:54:40.627Z,9.80
2019-04-21T03:07:09.401Z,9.70
2019-04-21T03:10:00.086Z,9.60
2019-04-21T03:16:17.130Z,9.50
2019-04-21T03:19:15.348Z,9.40
2019-04-21T03:22:20.734Z,9.40
2019-04-21T03:25:30.369Z,9.30
2019-04-21T03:28:22.638Z,9.30
2019-04-21T03:34:57.541Z,9.20
2019-04-21T03:37:35.426Z,9.10
2019-04-21T03:40:32.955Z,9.20
2019-04-21T03:47:04.397Z,9.10
2019-04-21T03:50:16.278Z,8.90
2019-04-21T03:53:18.637Z,9.00
2019-04-21T03:56:52.242Z,8.90
2019-04-21T03:59:38.207Z,8.90
2019-04-21T04:03:28.383Z,8.80
2019-04-21T04:06:33.983Z,8.70
2019-04-21T04:13:23.467Z,8.70
2019-04-21T04:19:26.372Z,8.50
2019-04-21T04:37:38.371Z,8.40
2019-04-21T04:44:31.434Z,8.40
2019-04-21T04:47:20.287Z,8.40
2019-04-21T04:50:22.025Z,8.30
2019-04-21T04:53:40.612Z,8.30
2019-04-21T04:56:29.142Z,8.30
2019-04-21T04:59:43.095Z,8.30
2019-04-21T05:02:48.948Z,8.30
2019-04-21T05:06:37.410Z,8.30
2019-04-21T05:09:27.074Z,8.30
2019-04-21T05:15:41.687Z,8.40
2019-04-21T05:19:03.818Z,8.50
2019-04-21T05:21:55.370Z,8.60
2019-04-21T05:24:49.382Z,8.60
2019-04-21T05:27:47.287Z,8.70
2019-04-21T05:34:26.963Z,9.00
2019-04-21T05:40:28.733Z,9.10
2019-04-21T05:43:51.379Z,9.10
2019-04-21T05:46:46.782Z,9.20
2019-04-21T05:52:53.594Z,9.30
2019-04-21T05:56:06.193Z,9.40
2019-04-21T05:59:03.467Z,9.40
2019-04-21T06:02:20.889Z,9.50
2019-04-21T06:05:23.128Z,9.60
2019-04-21T06:08:17.954Z,9.60
2019-04-21T06:11:17.890Z,9.70
2019-04-21T06:14:20.256Z,9.70
2019-04-21T06:17:29.779Z,9.80
2019-04-21T06:20:28.794Z,9.90
2019-04-21T06:23:30.097Z,9.90
2019-04-21T06:26:50.409Z,10.10
2019-04-21T06:29:42.087Z,10.10
2019-04-21T06:32:46.810Z,10.30
2019-04-21T06:39:31.811Z,10.40
2019-04-21T06:42:13.526Z,10.40
2019-04-21T06:45:31.460Z,10.50
2019-04-21T06:48:26.195Z,10.60
2019-04-21T06:51:27.204Z,10.80
2019-04-21T06:57:35.454Z,11.00
2019-04-21T07:00:33.095Z,11.00
2019-04-21T07:03:45.562Z,11.20
2019-04-21T07:06:45.706Z,11.30
2019-04-21T07:09:46.682Z,11.40
2019-04-21T07:12:49.728Z,11.50
2019-04-21T07:15:52.997Z,11.70
2019-04-21T07:19:01.377Z,11.90
2019-04-21T07:21:51.308Z,12.00
2019-04-21T07:24:58.977Z,12.30
2019-04-21T07:28:01.189Z,12.30
2019-04-21T07:31:03.743Z,12.50
2019-04-21T07:34:07.826Z,12.60
2019-04-21T07:37:06.000Z,12.80
2019-04-21T07:40:05.171Z,12.90
2019-04-21T07:43:05.554Z,13.00
2019-04-21T07:46:06.473Z,13.20
2019-04-21T07:49:41.548Z,13.30
2019-04-21T07:52:49.012Z,13.50
2019-04-21T07:58:58.277Z,13.80
2019-04-21T08:02:02.381Z,13.90
2019-04-21T08:08:21.122Z,14.20
2019-04-21T08:11:28.129Z,14.30
2019-04-21T08:14:48.275Z,14.40
2019-04-21T08:17:56.646Z,14.50
2019-04-21T08:20:54.438Z,14.70
2019-04-21T08:23:41.585Z,14.90
2019-04-21T08:27:00.163Z,15.10
2019-04-21T08:30:09.025Z,15.10
2019-04-21T08:36:30.932Z,15.50
2019-04-21T08:39:37.314Z,15.80
2019-04-21T08:42:46.681Z,15.90
2019-04-21T08:45:52.755Z,16.10
2019-04-21T08:52:09.854Z,16.40
2019-04-21T08:55:31.823Z,16.60
2019-04-21T08:59:03.776Z,16.80
2019-04-21T09:02:31.855Z,16.90
2019-04-21T09:05:37.730Z,17.00
2019-04-21T09:08:47.514Z,17.10
2019-04-21T09:11:59.656Z,17.30
2019-04-21T09:15:21.649Z,17.50
2019-04-21T09:18:15.757Z,17.80
2019-04-21T09:21:19.471Z,18.00
2019-04-21T09:24:22.249Z,18.30
2019-04-21T09:27:20.641Z,18.40
2019-04-21T09:30:10.798Z,18.60
2019-04-21T09:33:11.652Z,18.60
2019-04-21T09:36:15.448Z,18.90
2019-04-21T09:39:20.088Z,19.20
2019-04-21T09:42:19.799Z,19.30
2019-04-21T09:45:22.541Z,19.30
2019-04-21T09:48:25.877Z,19.50
2019-04-21T09:51:25.992Z,19.60
2019-04-21T09:54:30.919Z,19.80
2019-04-21T09:57:40.660Z,19.90
2019-04-21T10:00:43.498Z,20.10
2019-04-21T10:03:41.313Z,20.30
2019-04-21T10:06:43.133Z,20.50
2019-04-21T10:09:52.516Z,20.60
2019-04-21T10:13:02.891Z,20.80
2019-04-21T10:16:32.048Z,21.00
2019-04-21T10:19:41.886Z,21.20
2019-04-21T10:22:42.773Z,21.40
2019-04-21T10:25:43.481Z,21.60
2019-04-21T10:28:44.325Z,21.60
2019-04-21T10:31:45.257Z,21.90
2019-04-21T10:34:47.410Z,21.90
2019-04-21T10:38:01.294Z,21.90
2019-04-21T10:40:51.757Z,22.00
2019-04-21T10:43:41.010Z,22.30
2019-04-21T10:46:52.141Z,22.50
2019-04-21T10:50:00.474Z,22.60
2019-04-21T10:56:44.067Z,22.80
2019-04-21T10:59:54.075Z,23.10
2019-04-21T11:03:20.778Z,23.10
2019-04-21T11:09:42.355Z,23.10
2019-04-21T11:12:52.663Z,23.30
2019-04-21T11:16:01.558Z,23.40
2019-04-21T11:19:09.595Z,23.50
2019-04-21T11:22:10.630Z,23.50
2019-04-21T11:25:12.761Z,23.70
2019-04-21T11:28:14.452Z,23.90
2019-04-21T11:31:15.225Z,23.80
2019-04-21T11:34:23.557Z,23.90
2019-04-21T11:40:47.551Z,24.30
2019-04-21T11:43:57.221Z,24.40
2019-04-21T11:50:23.261Z,24.70
2019-04-21T11:53:32.877Z,24.70
2019-04-21T11:56:43.096Z,25.00
2019-04-21T11:59:51.458Z,25.00
2019-04-21T12:02:59.603Z,24.90
2019-04-21T12:06:09.046Z,24.80
2019-04-21T12:09:18.839Z,24.90
2019-04-21T12:12:27.516Z,25.20
2019-04-21T12:15:36.940Z,25.20
2019-04-21T12:18:45.151Z,25.20
2019-04-21T12:22:00.393Z,25.30
2019-04-21T12:24:51.287Z,25.20
2019-04-21T12:27:52.353Z,25.50
2019-04-21T12:30:53.906Z,25.40
2019-04-21T12:33:58.165Z,25.50
2019-04-21T12:36:59.109Z,25.70
2019-04-21T12:40:00.844Z,25.90
2019-04-21T12:43:02.890Z,25.80
2019-04-21T12:46:04.200Z,25.80
2019-04-21T12:49:05.547Z,25.70
2019-04-21T12:52:06.418Z,25.90
2019-04-21T12:55:07.350Z,26.00
2019-04-21T12:58:08.381Z,26.10
2019-04-21T13:01:09.375Z,26.30
2019-04-21T13:04:10.353Z,26.20
2019-04-21T13:07:10.962Z,26.30
2019-04-21T13:10:12.716Z,26.60
2019-04-21T13:13:14.353Z,26.70
2019-04-21T13:16:15.640Z,26.50
2019-04-21T13:19:17.387Z,26.70
2019-04-21T13:22:18.546Z,26.50
2019-04-21T13:25:20.092Z,26.60
2019-04-21T13:28:20.825Z,26.60
2019-04-21T13:31:22.347Z,26.70
2019-04-21T13:34:24.111Z,26.70
2019-04-21T13:37:25.648Z,26.60
2019-04-21T13:41:02.437Z,26.80
2019-04-21T13:43:50.768Z,26.50
2019-04-21T13:46:52.524Z,26.40
2019-04-21T13:49:55.950Z,26.60
2019-04-21T13:52:56.556Z,26.60
2019-04-21T13:55:58.508Z,26.70
2019-04-21T13:59:00.026Z,26.90
2019-04-21T14:02:00.372Z,27.00
2019-04-21T14:05:11.808Z,26.90
2019-04-21T14:08:18.897Z,26.90
2019-04-21T14:11:29.291Z,26.90
2019-04-21T14:14:38.617Z,26.90
2019-04-21T14:17:48.992Z,26.80
2019-04-21T14:20:51.251Z,26.80
2019-04-21T14:23:54.135Z,26.80
2019-04-21T14:26:56.192Z,27.10
2019-04-21T14:29:57.687Z,27.20
2019-04-21T14:32:58.463Z,27.20
2019-04-21T14:35:59.154Z,27.00
2019-04-21T14:39:00.648Z,27.20
2019-04-21T14:42:02.285Z,27.20
2019-04-21T14:45:03.290Z,27.10
2019-04-21T14:48:23.263Z,27.30
2019-04-21T14:51:45.400Z,27.30
2019-04-21T14:54:56.315Z,27.40
2019-04-21T14:57:57.478Z,27.20
2019-04-21T15:00:58.122Z,27.50
2019-04-21T15:03:59.785Z,27.40
2019-04-21T15:07:01.355Z,27.40
2019-04-21T15:10:10.908Z,27.30
2019-04-21T15:13:05.695Z,27.20
2019-04-21T15:16:06.872Z,27.20
2019-04-21T15:19:08.634Z,27.10
2019-04-21T15:22:10.267Z,27.20
2019-04-21T15:25:12.015Z,27.10
2019-04-21T15:28:13.791Z,27.20
2019-04-21T15:31:23.085Z,27.10
2019-04-21T15:34:17.658Z,27.10
2019-04-21T15:37:18.221Z,27.20
2019-04-21T15:40:30.236Z,27.40
2019-04-21T15:43:22.406Z,27.40
2019-04-21T15:46:24.709Z,27.40
2019-04-21T15:49:40.539Z,27.40
2019-04-21T15:52:31.839Z,27.50
2019-04-21T15:59:22.084Z,27.40
2019-04-21T16:02:42.525Z,27.20
2019-04-21T16:05:44.527Z,27.00
2019-04-21T16:08:49.652Z,27.10
2019-04-21T16:11:49.703Z,27.10
2019-04-21T16:14:50.288Z,27.30
2019-04-21T16:17:59.372Z,27.40
2019-04-21T16:21:02.062Z,27.30
2019-04-21T16:24:04.487Z,27.10
2019-04-21T16:27:08.692Z,27.00
2019-04-21T16:30:09.927Z,26.90
2019-04-21T16:32:59.876Z,26.90
2019-04-21T16:36:11.468Z,26.60
2019-04-21T16:39:19.626Z,26.60
2019-04-21T16:42:28.101Z,26.60
2019-04-21T16:45:37.005Z,26.80
2019-04-21T16:48:46.037Z,26.50
2019-04-21T16:52:16.112Z,26.60
2019-04-21T16:55:44.879Z,26.60
2019-04-21T16:58:57.161Z,26.50
2019-04-21T17:02:05.176Z,26.50
2019-04-21T17:05:14.377Z,26.40
2019-04-21T17:08:24.011Z,26.30
2019-04-21T17:11:35.350Z,26.30
2019-04-21T17:14:57.135Z,25.90
2019-04-21T17:18:10.377Z,25.90
2019-04-21T17:20:58.899Z,25.80
2019-04-21T17:23:58.708Z,25.70
2019-04-21T17:26:59.974Z,25.70
2019-04-21T17:30:01.203Z,25.60
2019-04-21T17:33:03.564Z,25.50
2019-04-21T17:36:04.951Z,25.30
2019-04-21T17:39:06.844Z,25.00
2019-04-21T17:42:18.537Z,24.60
2019-04-21T17:45:17.174Z,24.40
2019-04-21T17:48:27.144Z,24.10
2019-04-21T17:55:27.192Z,23.70
2019-04-21T18:02:21.289Z,23.30
2019-04-21T18:05:29.446Z,23.10
2019-04-21T18:08:36.357Z,23.00
2019-04-21T18:11:46.584Z,22.90
2019-04-21T18:14:55.519Z,22.70
2019-04-21T18:17:52.397Z,22.60
2019-04-21T18:27:21.932Z,22.20
2019-04-21T18:34:13.798Z,21.90
2019-04-21T18:40:55.814Z,21.70
2019-04-21T18:50:50.981Z,21.50
2019-04-21T18:54:28.929Z,21.30
2019-04-21T18:57:33.103Z,21.20
2019-04-21T19:04:17.746Z,21.00
2019-04-21T19:07:19.877Z,20.90
2019-04-21T19:10:40.663Z,20.80
2019-04-21T19:14:23.556Z,20.70
2019-04-21T19:20:26.135Z,20.50
2019-04-21T19:23:41.719Z,20.40
2019-04-21T19:26:42.407Z,20.30
2019-04-21T19:29:35.414Z,20.20
2019-04-21T19:32:25.616Z,20.10
2019-04-21T19:35:19.413Z,20.00
2019-04-21T19:38:32.808Z,19.80
2019-04-21T19:41:50.755Z,19.80
2019-04-21T19:45:05.646Z,19.70
2019-04-21T19:48:12.286Z,19.60
2019-04-21T19:51:22.018Z,19.60
2019-04-21T19:54:25.212Z,19.50
2019-04-21T19:57:07.219Z,19.50
2019-04-21T20:00:17.155Z,19.40
2019-04-21T20:06:51.844Z,19.20
2019-04-21T20:10:18.711Z,19.10
2019-04-21T20:12:56.895Z,19.10
2019-04-21T20:16:06.808Z,19.00
2019-04-21T20:19:02.956Z,18.90
2019-04-21T20:22:01.117Z,18.90
2019-04-21T20:25:08.261Z,18.90
2019-04-21T20:28:13.289Z,18.80
2019-04-21T20:31:23.664Z,18.70
2019-04-21T20:34:33.604Z,18.60
2019-04-21T20:37:32.072Z,18.50
2019-04-21T20:40:25.005Z,18.40
2019-04-21T20:43:36.496Z,18.40
2019-04-21T20:46:41.375Z,18.30
2019-04-21T20:49:33.585Z,18.20
2019-04-21T20:52:54.074Z,18.10
2019-04-21T20:55:54.258Z,18.10
2019-04-21T20:59:07.768Z,18.00
2019-04-21T21:02:19.024Z,17.90
2019-04-21T21:05:24.776Z,17.80
2019-04-21T21:08:43.444Z,17.70
2019-04-21T21:11:56.763Z,17.60
2019-04-21T21:14:48.965Z,17.60
2019-04-21T21:18:15.634Z,17.50
2019-04-21T21:21:15.154Z,17.50
2019-04-21T21:24:33.166Z,17.40
2019-04-21T21:27:35.116Z,17.30
2019-04-21T21:30:37.534Z,17.30
2019-04-21T21:37:16.083Z,17.20
2019-04-21T21:39:57.131Z,17.20
2019-04-21T21:42:49.374Z,17.10
2019-04-21T21:46:01.598Z,17.10
2019-04-21T21:49:26.334Z,16.80
2019-04-21T21:52:34.369Z,16.70
2019-04-21T21:55:27.780Z,16.60
2019-04-21T21:58:42.179Z,16.50
2019-04-21T22:01:51.844Z,16.40
2019-04-21T22:05:06.689Z,16.40
2019-04-21T22:08:06.818Z,16.30
2019-04-21T22:11:16.257Z,16.30
2019-04-21T22:14:32.655Z,16.30
2019-04-21T22:17:49.622Z,16.30
2019-04-21T22:20:59.104Z,16.30
2019-04-21T22:23:56.912Z,16.20
2019-04-21T22:26:36.988Z,16.10
2019-04-21T22:29:51.452Z,16.10
2019-04-21T22:33:02.404Z,16.10
2019-04-21T22:36:21.046Z,16.00
2019-04-21T22:39:36.159Z,15.90
2019-04-21T22:42:29.593Z,15.90
2019-04-21T22:45:35.683Z,15.90
2019-04-21T22:48:52.087Z,15.80
2019-04-21T22:51:55.703Z,15.80
2019-04-21T22:55:11.905Z,15.70
2019-04-21T22:58:15.882Z,15.80
2019-04-21T23:01:33.401Z,15.80
2019-04-21T23:04:15.925Z,15.60
2019-04-21T23:07:26.144Z,15.60
2019-04-21T23:10:34.952Z,15.60
2019-04-21T23:13:45.124Z,15.60
2019-04-21T23:20:47.965Z,15.50
2019-04-21T23:23:53.164Z,15.50
2019-04-21T23:26:37.587Z,15.50
2019-04-21T23:30:11.701Z,15.40
2019-04-21T23:32:50.476Z,15.30
2019-04-21T23:35:49.528Z,15.30
2019-04-21T23:42:32.422Z,15.30
2019-04-21T23:45:39.239Z,15.20
2019-04-21T23:48:36.511Z,15.10
2019-04-21T23:51:45.178Z,15.00
2019-04-21T23:54:45.457Z,15.00
2019-04-21T23:58:05.003Z,15.00
